NR99 weather

Corolla Fire Station Heliport
Corolla, North Carolina, United States

Public forecast

Using degrees Fahrenheit for public forecast. Weather courtesy of forecast.io.

METAR (pilot weather report)

Closest report is Currituck County Regional Airport, 10.6 nm (19.6 km) WNW. Retrieved 2019/02/23 09:40 UTC (1 hour ago):

KONX 230940Z AUTO 10SM SCT060 SCT070 OVC090 06/06 A3037 RMK AO2 T00630055

TAF (pilot weather forecast)

Closest forecast is Elizabeth City Regional Airport & Coast Guard Air Station, 18.0 nm (33.3 km) WSW. Retrieved 2019/02/23 06:24 UTC (4 hours ago):

TAF KECG 230520Z 2306/2406 05012KT P6SM OVC050 TEMPO 2306/2310 5SM -RA OVC040 FM231200 04010KT 5SM RA OVC020 FM231600 07008KT 4SM RA OVC009 FM232000 05009KT 2SM RA OVC005